sensor_id;sensor_type;location;lat;lon;timestamp;temperature;humidity
45096;DHT22;30858;51.108;8.068;2023-02-19T00:01:39;9.40;99.90
45096;DHT22;30858;51.108;8.068;2023-02-19T00:04:08;9.30;99.90
45096;DHT22;30858;51.108;8.068;2023-02-19T00:06:35;9.40;99.90
45096;DHT22;30858;51.108;8.068;2023-02-19T00:09:01;9.30;99.90
45096;DHT22;30858;51.108;8.068;2023-02-19T00:11:29;9.30;99.90
45096;DHT22;30858;51.108;8.068;2023-02-19T00:13:56;9.30;99.90
45096;DHT22;30858;51.108;8.068;2023-02-19T00:16:36;9.30;99.90
45096;DHT22;30858;51.108;8.068;2023-02-19T00:19:04;9.20;99.90
45096;DHT22;30858;51.108;8.068;2023-02-19T00:21:30;9.30;99.90
45096;DHT22;30858;51.108;8.068;2023-02-19T00:23:59;9.30;99.90
45096;DHT22;30858;51.108;8.068;2023-02-19T00:26:25;9.30;99.90
45096;DHT22;30858;51.108;8.068;2023-02-19T00:28:52;9.30;99.90
45096;DHT22;30858;51.108;8.068;2023-02-19T00:31:23;9.30;99.90
45096;DHT22;30858;51.108;8.068;2023-02-19T00:33:55;9.30;99.90
45096;DHT22;30858;51.108;8.068;2023-02-19T00:36:21;9.30;99.90
45096;DHT22;30858;51.108;8.068;2023-02-19T00:38:47;9.30;99.90
45096;DHT22;30858;51.108;8.068;2023-02-19T00:41:14;9.30;99.90
45096;DHT22;30858;51.108;8.068;2023-02-19T00:43:54;9.20;99.90
45096;DHT22;30858;51.108;8.068;2023-02-19T00:46:26;9.20;99.90
45096;DHT22;30858;51.108;8.068;2023-02-19T00:48:52;9.20;99.90
45096;DHT22;30858;51.108;8.068;2023-02-19T00:51:18;9.30;99.90
45096;DHT22;30858;51.108;8.068;2023-02-19T00:53:44;9.30;99.90
45096;DHT22;30858;51.108;8.068;2023-02-19T00:56:10;9.30;99.90
45096;DHT22;30858;51.108;8.068;2023-02-19T00:58:36;9.30;99.90
45096;DHT22;30858;51.108;8.068;2023-02-19T01:01:02;9.40;99.90
45096;DHT22;30858;51.108;8.068;2023-02-19T01:03:28;9.30;99.90
45096;DHT22;30858;51.108;8.068;2023-02-19T01:05:53;9.30;99.90
45096;DHT22;30858;51.108;8.068;2023-02-19T01:08:20;9.30;99.90
45096;DHT22;30858;51.108;8.068;2023-02-19T01:10:46;9.30;99.90
45096;DHT22;30858;51.108;8.068;2023-02-19T01:13:11;9.30;99.90
45096;DHT22;30858;51.108;8.068;2023-02-19T01:15:38;9.40;99.90
45096;DHT22;30858;51.108;8.068;2023-02-19T01:18:03;9.40;99.90
45096;DHT22;30858;51.108;8.068;2023-02-19T01:20:29;9.40;99.90
45096;DHT22;30858;51.108;8.068;2023-02-19T01:22:54;9.30;99.90
45096;DHT22;30858;51.108;8.068;2023-02-19T01:25:20;9.30;99.90
45096;DHT22;30858;51.108;8.068;2023-02-19T01:27:45;9.30;99.90
45096;DHT22;30858;51.108;8.068;2023-02-19T01:30:11;9.30;99.90
45096;DHT22;30858;51.108;8.068;2023-02-19T01:32:37;9.20;99.90
45096;DHT22;30858;51.108;8.068;2023-02-19T01:35:03;9.20;99.90
45096;DHT22;30858;51.108;8.068;2023-02-19T01:37:29;9.10;99.90
45096;DHT22;30858;51.108;8.068;2023-02-19T01:39:54;9.10;99.90
45096;DHT22;30858;51.108;8.068;2023-02-19T01:42:20;9.10;99.90
45096;DHT22;30858;51.108;8.068;2023-02-19T01:47:11;9.10;99.90
45096;DHT22;30858;51.108;8.068;2023-02-19T01:49:47;9.10;99.90
45096;DHT22;30858;51.108;8.068;2023-02-19T01:52:17;9.10;99.90
45096;DHT22;30858;51.108;8.068;2023-02-19T01:54:45;9.20;99.90
45096;DHT22;30858;51.108;8.068;2023-02-19T01:57:16;9.20;99.90
45096;DHT22;30858;51.108;8.068;2023-02-19T01:59:42;9.10;99.90
45096;DHT22;30858;51.108;8.068;2023-02-19T02:02:08;9.20;99.90
45096;DHT22;30858;51.108;8.068;2023-02-19T02:04:34;9.20;99.90
45096;DHT22;30858;51.108;8.068;2023-02-19T02:07:02;9.20;99.90
45096;DHT22;30858;51.108;8.068;2023-02-19T02:09:48;9.20;99.90
45096;DHT22;30858;51.108;8.068;2023-02-19T02:12:32;9.20;99.90
45096;DHT22;30858;51.108;8.068;2023-02-19T02:14:58;9.20;99.90
45096;DHT22;30858;51.108;8.068;2023-02-19T02:17:27;9.20;99.90
45096;DHT22;30858;51.108;8.068;2023-02-19T02:22:41;9.10;99.90
45096;DHT22;30858;51.108;8.068;2023-02-19T02:30:28;9.20;99.90
45096;DHT22;30858;51.108;8.068;2023-02-19T02:36:00;9.20;99.90
45096;DHT22;30858;51.108;8.068;2023-02-19T02:38:29;9.20;99.90
45096;DHT22;30858;51.108;8.068;2023-02-19T02:40:56;9.20;99.90
45096;DHT22;30858;51.108;8.068;2023-02-19T02:43:22;9.20;99.90
45096;DHT22;30858;51.108;8.068;2023-02-19T02:45:47;9.20;99.90
45096;DHT22;30858;51.108;8.068;2023-02-19T02:48:26;9.10;99.90
45096;DHT22;30858;51.108;8.068;2023-02-19T02:53:34;9.20;99.90
45096;DHT22;30858;51.108;8.068;2023-02-19T02:56:20;9.10;99.90
45096;DHT22;30858;51.108;8.068;2023-02-19T02:58:47;9.10;99.90
45096;DHT22;30858;51.108;8.068;2023-02-19T03:01:30;9.10;99.90
45096;DHT22;30858;51.108;8.068;2023-02-19T03:04:32;9.10;99.90
45096;DHT22;30858;51.108;8.068;2023-02-19T03:07:03;9.10;99.90
45096;DHT22;30858;51.108;8.068;2023-02-19T03:09:37;9.10;99.90
45096;DHT22;30858;51.108;8.068;2023-02-19T03:12:08;9.00;99.90
45096;DHT22;30858;51.108;8.068;2023-02-19T03:14:55;9.10;99.90
45096;DHT22;30858;51.108;8.068;2023-02-19T03:17:46;9.10;99.90
45096;DHT22;30858;51.108;8.068;2023-02-19T03:20:33;9.20;99.90
45096;DHT22;30858;51.108;8.068;2023-02-19T03:23:01;9.20;99.90
45096;DHT22;30858;51.108;8.068;2023-02-19T03:25:31;9.30;99.90
45096;DHT22;30858;51.108;8.068;2023-02-19T03:28:19;9.30;99.90
45096;DHT22;30858;51.108;8.068;2023-02-19T03:31:08;9.30;99.90
45096;DHT22;30858;51.108;8.068;2023-02-19T03:33:36;9.20;99.90
45096;DHT22;30858;51.108;8.068;2023-02-19T03:36:06;9.30;99.90
45096;DHT22;30858;51.108;8.068;2023-02-19T03:39:14;9.30;99.90
45096;DHT22;30858;51.108;8.068;2023-02-19T03:42:02;9.30;99.90
45096;DHT22;30858;51.108;8.068;2023-02-19T03:44:40;9.20;99.90
45096;DHT22;30858;51.108;8.068;2023-02-19T03:47:15;9.20;99.90
45096;DHT22;30858;51.108;8.068;2023-02-19T03:55:15;9.20;99.90
45096;DHT22;30858;51.108;8.068;2023-02-19T03:57:47;9.20;99.90
45096;DHT22;30858;51.108;8.068;2023-02-19T04:00:18;9.20;99.90
45096;DHT22;30858;51.108;8.068;2023-02-19T04:05:23;9.20;99.90
45096;DHT22;30858;51.108;8.068;2023-02-19T04:07:53;9.30;99.90
45096;DHT22;30858;51.108;8.068;2023-02-19T04:10:19;9.30;99.90
45096;DHT22;30858;51.108;8.068;2023-02-19T04:12:50;9.20;99.90
45096;DHT22;30858;51.108;8.068;2023-02-19T04:15:22;9.20;99.90
45096;DHT22;30858;51.108;8.068;2023-02-19T04:18:08;9.10;99.90
45096;DHT22;30858;51.108;8.068;2023-02-19T04:20:40;9.00;99.90
45096;DHT22;30858;51.108;8.068;2023-02-19T04:23:07;8.90;99.90
45096;DHT22;30858;51.108;8.068;2023-02-19T04:25:34;8.90;99.90
45096;DHT22;30858;51.108;8.068;2023-02-19T04:28:01;8.90;99.90
45096;DHT22;30858;51.108;8.068;2023-02-19T04:30:27;9.00;99.90
45096;DHT22;30858;51.108;8.068;2023-02-19T04:32:52;9.00;99.90
45096;DHT22;30858;51.108;8.068;2023-02-19T04:35:18;8.90;99.90
45096;DHT22;30858;51.108;8.068;2023-02-19T04:37:43;8.90;99.90
45096;DHT22;30858;51.108;8.068;2023-02-19T04:40:09;8.90;99.90
45096;DHT22;30858;51.108;8.068;2023-02-19T04:42:35;8.90;99.90
45096;DHT22;30858;51.108;8.068;2023-02-19T04:45:00;8.90;99.90
45096;DHT22;30858;51.108;8.068;2023-02-19T04:47:26;8.90;99.90
45096;DHT22;30858;51.108;8.068;2023-02-19T04:49:51;8.90;99.90
45096;DHT22;30858;51.108;8.068;2023-02-19T04:52:17;8.90;99.90
45096;DHT22;30858;51.108;8.068;2023-02-19T04:54:42;8.80;99.90
45096;DHT22;30858;51.108;8.068;2023-02-19T04:57:08;8.90;99.90
45096;DHT22;30858;51.108;8.068;2023-02-19T04:59:33;8.90;99.90
45096;DHT22;30858;51.108;8.068;2023-02-19T05:01:59;8.90;99.90
45096;DHT22;30858;51.108;8.068;2023-02-19T05:04:24;8.90;99.90
45096;DHT22;30858;51.108;8.068;2023-02-19T05:06:50;8.90;99.90
45096;DHT22;30858;51.108;8.068;2023-02-19T05:09:15;8.90;99.90
45096;DHT22;30858;51.108;8.068;2023-02-19T05:11:41;8.90;99.90
45096;DHT22;30858;51.108;8.068;2023-02-19T05:14:07;8.80;99.90
45096;DHT22;30858;51.108;8.068;2023-02-19T05:16:32;8.70;99.90
45096;DHT22;30858;51.108;8.068;2023-02-19T05:18:58;8.70;99.90
45096;DHT22;30858;51.108;8.068;2023-02-19T05:21:24;8.60;99.90
45096;DHT22;30858;51.108;8.068;2023-02-19T05:23:49;8.60;99.90
45096;DHT22;30858;51.108;8.068;2023-02-19T05:26:18;8.60;99.90
45096;DHT22;30858;51.108;8.068;2023-02-19T05:28:51;8.60;99.90
45096;DHT22;30858;51.108;8.068;2023-02-19T05:31:18;8.60;99.90
45096;DHT22;30858;51.108;8.068;2023-02-19T05:33:43;8.60;99.90
45096;DHT22;30858;51.108;8.068;2023-02-19T05:36:13;8.50;99.90
45096;DHT22;30858;51.108;8.068;2023-02-19T05:38:39;8.50;99.90
45096;DHT22;30858;51.108;8.068;2023-02-19T05:41:15;8.60;99.90
45096;DHT22;30858;51.108;8.068;2023-02-19T05:43:43;8.60;99.90
45096;DHT22;30858;51.108;8.068;2023-02-19T05:46:11;8.60;99.90
45096;DHT22;30858;51.108;8.068;2023-02-19T05:48:36;8.60;99.90
45096;DHT22;30858;51.108;8.068;2023-02-19T05:51:04;8.60;99.90
45096;DHT22;30858;51.108;8.068;2023-02-19T05:53:30;8.60;99.90
45096;DHT22;30858;51.108;8.068;2023-02-19T05:55:56;8.60;99.90
45096;DHT22;30858;51.108;8.068;2023-02-19T05:58:22;8.50;99.90
45096;DHT22;30858;51.108;8.068;2023-02-19T06:00:47;8.50;99.90
45096;DHT22;30858;51.108;8.068;2023-02-19T06:03:13;8.40;99.90
45096;DHT22;30858;51.108;8.068;2023-02-19T06:05:39;8.40;99.90
45096;DHT22;30858;51.108;8.068;2023-02-19T06:08:04;8.40;99.90
45096;DHT22;30858;51.108;8.068;2023-02-19T06:10:30;8.40;99.90
45096;DHT22;30858;51.108;8.068;2023-02-19T06:12:55;8.30;99.90
45096;DHT22;30858;51.108;8.068;2023-02-19T06:15:21;8.40;99.90
45096;DHT22;30858;51.108;8.068;2023-02-19T06:17:47;8.30;99.90
45096;DHT22;30858;51.108;8.068;2023-02-19T06:20:13;8.30;99.90
45096;DHT22;30858;51.108;8.068;2023-02-19T06:22:38;8.30;99.90
45096;DHT22;30858;51.108;8.068;2023-02-19T06:25:04;8.20;99.90
45096;DHT22;30858;51.108;8.068;2023-02-19T06:27:32;8.20;99.90
45096;DHT22;30858;51.108;8.068;2023-02-19T06:29:58;8.30;99.90
45096;DHT22;30858;51.108;8.068;2023-02-19T06:32:23;8.20;99.90
45096;DHT22;30858;51.108;8.068;2023-02-19T06:34:49;8.20;99.90
45096;DHT22;30858;51.108;8.068;2023-02-19T06:37:14;8.20;99.90
45096;DHT22;30858;51.108;8.068;2023-02-19T06:39:40;8.20;99.90
45096;DHT22;30858;51.108;8.068;2023-02-19T06:42:06;8.20;99.90
45096;DHT22;30858;51.108;8.068;2023-02-19T06:44:31;8.20;99.90
45096;DHT22;30858;51.108;8.068;2023-02-19T06:46:57;8.20;99.90
45096;DHT22;30858;51.108;8.068;2023-02-19T06:49:22;8.20;99.90
45096;DHT22;30858;51.108;8.068;2023-02-19T06:51:48;8.20;99.90
45096;DHT22;30858;51.108;8.068;2023-02-19T06:54:13;8.20;99.90
45096;DHT22;30858;51.108;8.068;2023-02-19T06:56:40;8.30;99.90
45096;DHT22;30858;51.108;8.068;2023-02-19T06:59:13;8.30;99.90
45096;DHT22;30858;51.108;8.068;2023-02-19T07:01:41;8.40;99.90
45096;DHT22;30858;51.108;8.068;2023-02-19T07:04:07;8.30;99.90
45096;DHT22;30858;51.108;8.068;2023-02-19T07:06:33;8.20;99.90
45096;DHT22;30858;51.108;8.068;2023-02-19T07:09:02;8.20;99.90
45096;DHT22;30858;51.108;8.068;2023-02-19T07:11:30;8.20;99.90
45096;DHT22;30858;51.108;8.068;2023-02-19T07:13:58;8.20;99.90
45096;DHT22;30858;51.108;8.068;2023-02-19T07:16:24;8.20;99.90
45096;DHT22;30858;51.108;8.068;2023-02-19T07:18:50;8.20;99.90
45096;DHT22;30858;51.108;8.068;2023-02-19T07:21:16;8.20;99.90
45096;DHT22;30858;51.108;8.068;2023-02-19T07:23:43;8.20;99.90
45096;DHT22;30858;51.108;8.068;2023-02-19T07:26:13;8.10;99.90
45096;DHT22;30858;51.108;8.068;2023-02-19T07:28:40;8.20;99.90
45096;DHT22;30858;51.108;8.068;2023-02-19T07:31:06;8.20;99.90
45096;DHT22;30858;51.108;8.068;2023-02-19T07:33:31;8.30;99.90
45096;DHT22;30858;51.108;8.068;2023-02-19T07:35:57;8.20;99.90
45096;DHT22;30858;51.108;8.068;2023-02-19T07:38:24;8.30;99.90
45096;DHT22;30858;51.108;8.068;2023-02-19T07:40:54;8.30;99.90
45096;DHT22;30858;51.108;8.068;2023-02-19T07:43:20;8.30;99.90
45096;DHT22;30858;51.108;8.068;2023-02-19T07:45:46;8.20;99.90
45096;DHT22;30858;51.108;8.068;2023-02-19T07:48:12;8.20;99.90
45096;DHT22;30858;51.108;8.068;2023-02-19T07:50:37;8.20;99.90
45096;DHT22;30858;51.108;8.068;2023-02-19T07:53:03;8.30;99.90
45096;DHT22;30858;51.108;8.068;2023-02-19T07:55:31;8.40;99.90
45096;DHT22;30858;51.108;8.068;2023-02-19T07:57:57;8.30;99.90
45096;DHT22;30858;51.108;8.068;2023-02-19T08:00:23;8.10;99.90
45096;DHT22;30858;51.108;8.068;2023-02-19T08:02:50;8.20;99.90
45096;DHT22;30858;51.108;8.068;2023-02-19T08:05:29;8.20;99.90
45096;DHT22;30858;51.108;8.068;2023-02-19T08:07:56;8.20;99.90
45096;DHT22;30858;51.108;8.068;2023-02-19T08:10:22;8.30;99.90
45096;DHT22;30858;51.108;8.068;2023-02-19T08:13:10;8.30;99.90
45096;DHT22;30858;51.108;8.068;2023-02-19T08:15:55;8.40;99.90
45096;DHT22;30858;51.108;8.068;2023-02-19T08:18:25;8.40;99.90
45096;DHT22;30858;51.108;8.068;2023-02-19T08:20:52;8.30;99.90
45096;DHT22;30858;51.108;8.068;2023-02-19T08:23:18;8.20;99.90
45096;DHT22;30858;51.108;8.068;2023-02-19T08:25:48;8.20;99.90
45096;DHT22;30858;51.108;8.068;2023-02-19T08:28:15;8.20;99.90
45096;DHT22;30858;51.108;8.068;2023-02-19T08:30:42;8.20;99.90
45096;DHT22;30858;51.108;8.068;2023-02-19T08:33:15;8.30;99.90
45096;DHT22;30858;51.108;8.068;2023-02-19T08:35:41;8.40;99.90
45096;DHT22;30858;51.108;8.068;2023-02-19T08:38:08;8.40;99.90
45096;DHT22;30858;51.108;8.068;2023-02-19T08:40:34;8.40;99.90
45096;DHT22;30858;51.108;8.068;2023-02-19T08:43:07;8.30;99.90
45096;DHT22;30858;51.108;8.068;2023-02-19T08:45:33;8.30;99.90
45096;DHT22;30858;51.108;8.068;2023-02-19T08:48:00;8.40;99.90
45096;DHT22;30858;51.108;8.068;2023-02-19T08:50:26;8.40;99.90
45096;DHT22;30858;51.108;8.068;2023-02-19T08:52:52;8.40;99.90
45096;DHT22;30858;51.108;8.068;2023-02-19T08:55:18;8.90;99.90
45096;DHT22;30858;51.108;8.068;2023-02-19T08:57:43;9.90;99.90
45096;DHT22;30858;51.108;8.068;2023-02-19T09:00:09;9.90;99.90
45096;DHT22;30858;51.108;8.068;2023-02-19T09:02:35;9.90;99.90
45096;DHT22;30858;51.108;8.068;2023-02-19T09:05:01;10.00;99.90
45096;DHT22;30858;51.108;8.068;2023-02-19T09:07:26;9.90;99.90
45096;DHT22;30858;51.108;8.068;2023-02-19T09:09:52;9.70;99.90
45096;DHT22;30858;51.108;8.068;2023-02-19T09:12:18;10.60;99.90
45096;DHT22;30858;51.108;8.068;2023-02-19T09:14:43;10.50;99.90
45096;DHT22;30858;51.108;8.068;2023-02-19T09:17:09;10.20;99.90
45096;DHT22;30858;51.108;8.068;2023-02-19T09:19:35;10.60;99.90
45096;DHT22;30858;51.108;8.068;2023-02-19T09:22:02;10.80;99.90
45096;DHT22;30858;51.108;8.068;2023-02-19T09:24:28;11.20;99.90
45096;DHT22;30858;51.108;8.068;2023-02-19T09:26:54;11.30;99.90
45096;DHT22;30858;51.108;8.068;2023-02-19T09:29:21;11.00;99.90
45096;DHT22;30858;51.108;8.068;2023-02-19T09:31:49;11.10;99.90
45096;DHT22;30858;51.108;8.068;2023-02-19T09:34:14;10.60;99.90
45096;DHT22;30858;51.108;8.068;2023-02-19T09:36:40;10.90;99.90
45096;DHT22;30858;51.108;8.068;2023-02-19T09:39:07;11.10;99.90
45096;DHT22;30858;51.108;8.068;2023-02-19T09:41:36;10.50;99.90
45096;DHT22;30858;51.108;8.068;2023-02-19T09:44:05;10.40;99.90
45096;DHT22;30858;51.108;8.068;2023-02-19T09:46:45;9.90;99.90
45096;DHT22;30858;51.108;8.068;2023-02-19T09:49:19;9.80;99.90
45096;DHT22;30858;51.108;8.068;2023-02-19T09:52:14;9.60;99.90
45096;DHT22;30858;51.108;8.068;2023-02-19T09:54:39;9.40;99.90
45096;DHT22;30858;51.108;8.068;2023-02-19T09:57:15;9.30;99.90
45096;DHT22;30858;51.108;8.068;2023-02-19T09:59:48;9.40;99.90
45096;DHT22;30858;51.108;8.068;2023-02-19T10:02:20;9.30;99.90
45096;DHT22;30858;51.108;8.068;2023-02-19T10:04:47;9.40;99.90
45096;DHT22;30858;51.108;8.068;2023-02-19T10:07:18;9.60;99.90
45096;DHT22;30858;51.108;8.068;2023-02-19T10:09:47;9.50;99.90
45096;DHT22;30858;51.108;8.068;2023-02-19T10:12:19;9.40;99.90
45096;DHT22;30858;51.108;8.068;2023-02-19T10:14:52;9.40;99.90
45096;DHT22;30858;51.108;8.068;2023-02-19T10:17:23;9.30;99.90
45096;DHT22;30858;51.108;8.068;2023-02-19T10:19:52;9.30;99.90
45096;DHT22;30858;51.108;8.068;2023-02-19T10:22:19;9.20;99.90
45096;DHT22;30858;51.108;8.068;2023-02-19T10:24:53;9.30;99.90
45096;DHT22;30858;51.108;8.068;2023-02-19T10:27:19;9.50;99.90
45096;DHT22;30858;51.108;8.068;2023-02-19T10:29:46;9.60;99.90
45096;DHT22;30858;51.108;8.068;2023-02-19T10:32:22;9.70;99.90
45096;DHT22;30858;51.108;8.068;2023-02-19T10:35:08;9.70;99.90
45096;DHT22;30858;51.108;8.068;2023-02-19T10:37:35;9.60;99.90
45096;DHT22;30858;51.108;8.068;2023-02-19T10:40:21;9.40;99.90
45096;DHT22;30858;51.108;8.068;2023-02-19T10:42:49;9.20;99.90
45096;DHT22;30858;51.108;8.068;2023-02-19T10:45:39;9.20;99.90
45096;DHT22;30858;51.108;8.068;2023-02-19T10:48:30;9.20;99.90
45096;DHT22;30858;51.108;8.068;2023-02-19T10:51:08;9.20;99.90
45096;DHT22;30858;51.108;8.068;2023-02-19T10:53:44;9.20;99.90
45096;DHT22;30858;51.108;8.068;2023-02-19T10:58:41;9.30;99.90
45096;DHT22;30858;51.108;8.068;2023-02-19T11:03:50;9.20;99.90
45096;DHT22;30858;51.108;8.068;2023-02-19T11:06:18;9.30;99.90
45096;DHT22;30858;51.108;8.068;2023-02-19T11:11:34;9.50;99.90
45096;DHT22;30858;51.108;8.068;2023-02-19T11:14:13;9.60;99.90
45096;DHT22;30858;51.108;8.068;2023-02-19T11:16:48;9.80;99.90
45096;DHT22;30858;51.108;8.068;2023-02-19T11:19:38;9.60;99.90
45096;DHT22;30858;51.108;8.068;2023-02-19T11:24:48;9.60;99.90
45096;DHT22;30858;51.108;8.068;2023-02-19T11:27:22;9.60;99.90
45096;DHT22;30858;51.108;8.068;2023-02-19T11:29:48;9.70;99.90
45096;DHT22;30858;51.108;8.068;2023-02-19T11:34:48;9.60;99.90
45096;DHT22;30858;51.108;8.068;2023-02-19T11:37:15;9.60;99.90
45096;DHT22;30858;51.108;8.068;2023-02-19T11:39:44;9.60;99.90
45096;DHT22;30858;51.108;8.068;2023-02-19T11:42:32;9.40;99.90
45096;DHT22;30858;51.108;8.068;2023-02-19T11:47:57;9.20;99.90
45096;DHT22;30858;51.108;8.068;2023-02-19T11:53:28;9.10;99.90
45096;DHT22;30858;51.108;8.068;2023-02-19T11:58:49;9.50;99.90
45096;DHT22;30858;51.108;8.068;2023-02-19T12:01:23;9.50;99.90
45096;DHT22;30858;51.108;8.068;2023-02-19T12:12:29;9.50;99.90
45096;DHT22;30858;51.108;8.068;2023-02-19T12:17:49;9.50;99.90
45096;DHT22;30858;51.108;8.068;2023-02-19T12:37:05;9.60;99.90
45096;DHT22;30858;51.108;8.068;2023-02-19T12:40:07;9.50;99.90
45096;DHT22;30858;51.108;8.068;2023-02-19T12:42:54;9.50;99.90
45096;DHT22;30858;51.108;8.068;2023-02-19T12:45:40;9.50;99.90
45096;DHT22;30858;51.108;8.068;2023-02-19T12:48:40;9.50;99.90
45096;DHT22;30858;51.108;8.068;2023-02-19T12:51:14;9.40;99.90
45096;DHT22;30858;51.108;8.068;2023-02-19T12:53:47;9.40;99.90
45096;DHT22;30858;51.108;8.068;2023-02-19T12:56:32;9.40;99.90
45096;DHT22;30858;51.108;8.068;2023-02-19T12:59:07;9.50;99.90
45096;DHT22;30858;51.108;8.068;2023-02-19T13:01:46;9.50;99.90
45096;DHT22;30858;51.108;8.068;2023-02-19T13:07:20;9.60;99.90
45096;DHT22;30858;51.108;8.068;2023-02-19T13:09:52;9.60;99.90
45096;DHT22;30858;51.108;8.068;2023-02-19T13:12:33;9.60;99.90
45096;DHT22;30858;51.108;8.068;2023-02-19T13:17:50;9.50;99.90
45096;DHT22;30858;51.108;8.068;2023-02-19T13:20:31;9.50;99.90
45096;DHT22;30858;51.108;8.068;2023-02-19T13:36:40;9.60;99.90
45096;DHT22;30858;51.108;8.068;2023-02-19T13:39:06;9.60;99.90
45096;DHT22;30858;51.108;8.068;2023-02-19T13:41:40;9.70;99.90
45096;DHT22;30858;51.108;8.068;2023-02-19T13:44:16;9.80;99.90
45096;DHT22;30858;51.108;8.068;2023-02-19T13:46:44;9.70;99.90
45096;DHT22;30858;51.108;8.068;2023-02-19T13:52:01;9.50;99.90
45096;DHT22;30858;51.108;8.068;2023-02-19T13:54:32;9.60;99.90
45096;DHT22;30858;51.108;8.068;2023-02-19T13:59:47;9.60;99.90
45096;DHT22;30858;51.108;8.068;2023-02-19T14:05:05;9.50;99.90
45096;DHT22;30858;51.108;8.068;2023-02-19T14:07:50;9.40;99.90
45096;DHT22;30858;51.108;8.068;2023-02-19T14:10:49;9.40;99.90
45096;DHT22;30858;51.108;8.068;2023-02-19T14:19:02;9.20;99.90
45096;DHT22;30858;51.108;8.068;2023-02-19T14:21:46;9.20;99.90
45096;DHT22;30858;51.108;8.068;2023-02-19T14:24:13;9.10;99.90
45096;DHT22;30858;51.108;8.068;2023-02-19T14:26:39;9.10;99.90
45096;DHT22;30858;51.108;8.068;2023-02-19T14:29:12;9.20;99.90
45096;DHT22;30858;51.108;8.068;2023-02-19T14:31:38;9.20;99.90
45096;DHT22;30858;51.108;8.068;2023-02-19T14:34:15;9.10;99.90
45096;DHT22;30858;51.108;8.068;2023-02-19T14:39:28;9.10;99.90
45096;DHT22;30858;51.108;8.068;2023-02-19T14:41:58;9.10;99.90
45096;DHT22;30858;51.108;8.068;2023-02-19T14:44:27;9.00;99.90
45096;DHT22;30858;51.108;8.068;2023-02-19T14:47:06;9.00;99.90
45096;DHT22;30858;51.108;8.068;2023-02-19T14:49:43;8.90;99.90
45096;DHT22;30858;51.108;8.068;2023-02-19T14:52:35;9.00;99.90
45096;DHT22;30858;51.108;8.068;2023-02-19T14:55:09;9.00;99.90
45096;DHT22;30858;51.108;8.068;2023-02-19T14:57:40;9.00;99.90
45096;DHT22;30858;51.108;8.068;2023-02-19T15:00:34;8.90;99.90
45096;DHT22;30858;51.108;8.068;2023-02-19T15:03:02;8.80;99.90
45096;DHT22;30858;51.108;8.068;2023-02-19T15:05:30;8.80;99.90
45096;DHT22;30858;51.108;8.068;2023-02-19T15:08:02;8.80;99.90
45096;DHT22;30858;51.108;8.068;2023-02-19T15:10:30;8.80;99.90
45096;DHT22;30858;51.108;8.068;2023-02-19T15:13:04;8.70;99.90
45096;DHT22;30858;51.108;8.068;2023-02-19T15:15:37;8.70;99.90
45096;DHT22;30858;51.108;8.068;2023-02-19T15:18:05;8.60;99.90
45096;DHT22;30858;51.108;8.068;2023-02-19T15:20:33;8.60;99.90
45096;DHT22;30858;51.108;8.068;2023-02-19T15:23:00;8.50;99.90
45096;DHT22;30858;51.108;8.068;2023-02-19T15:25:32;8.50;99.90
45096;DHT22;30858;51.108;8.068;2023-02-19T15:28:17;8.40;99.90
45096;DHT22;30858;51.108;8.068;2023-02-19T15:30:43;8.40;99.90
45096;DHT22;30858;51.108;8.068;2023-02-19T15:33:17;8.40;99.90
45096;DHT22;30858;51.108;8.068;2023-02-19T15:35:48;8.50;99.90
45096;DHT22;30858;51.108;8.068;2023-02-19T15:38:14;8.60;99.90
45096;DHT22;30858;51.108;8.068;2023-02-19T15:40:43;8.60;99.90
45096;DHT22;30858;51.108;8.068;2023-02-19T15:43:22;8.50;99.90
45096;DHT22;30858;51.108;8.068;2023-02-19T15:45:50;8.60;99.90
45096;DHT22;30858;51.108;8.068;2023-02-19T15:48:24;8.60;99.90
45096;DHT22;30858;51.108;8.068;2023-02-19T15:50:58;8.50;99.90
45096;DHT22;30858;51.108;8.068;2023-02-19T15:53:36;8.50;99.90
45096;DHT22;30858;51.108;8.068;2023-02-19T15:56:30;8.50;99.90
45096;DHT22;30858;51.108;8.068;2023-02-19T15:59:29;8.50;99.90
45096;DHT22;30858;51.108;8.068;2023-02-19T16:01:56;8.60;99.90
45096;DHT22;30858;51.108;8.068;2023-02-19T16:04:22;8.50;99.90
45096;DHT22;30858;51.108;8.068;2023-02-19T16:07:01;8.50;99.90
45096;DHT22;30858;51.108;8.068;2023-02-19T16:09:31;8.50;99.90
45096;DHT22;30858;51.108;8.068;2023-02-19T16:11:59;8.60;99.90
45096;DHT22;30858;51.108;8.068;2023-02-19T16:14:35;8.60;99.90
45096;DHT22;30858;51.108;8.068;2023-02-19T16:19:53;8.60;99.90
45096;DHT22;30858;51.108;8.068;2023-02-19T16:22:25;8.50;99.90
45096;DHT22;30858;51.108;8.068;2023-02-19T16:24:58;8.50;99.90
45096;DHT22;30858;51.108;8.068;2023-02-19T16:27:39;8.50;99.90
45096;DHT22;30858;51.108;8.068;2023-02-19T16:35:56;8.30;99.90
45096;DHT22;30858;51.108;8.068;2023-02-19T16:38:22;8.30;99.90
45096;DHT22;30858;51.108;8.068;2023-02-19T16:45:43;8.30;99.90
45096;DHT22;30858;51.108;8.068;2023-02-19T16:48:09;8.30;99.90
45096;DHT22;30858;51.108;8.068;2023-02-19T16:50:38;8.40;99.90
45096;DHT22;30858;51.108;8.068;2023-02-19T16:53:06;8.30;99.90
45096;DHT22;30858;51.108;8.068;2023-02-19T16:55:31;8.30;99.90
45096;DHT22;30858;51.108;8.068;2023-02-19T16:57:59;8.30;99.90
45096;DHT22;30858;51.108;8.068;2023-02-19T17:00:26;8.30;99.90
45096;DHT22;30858;51.108;8.068;2023-02-19T17:02:56;8.30;99.90
45096;DHT22;30858;51.108;8.068;2023-02-19T17:05:25;8.30;99.90
45096;DHT22;30858;51.108;8.068;2023-02-19T17:07:52;8.20;99.90
45096;DHT22;30858;51.108;8.068;2023-02-19T17:10:26;8.10;99.90
45096;DHT22;30858;51.108;8.068;2023-02-19T17:12:53;8.10;99.90
45096;DHT22;30858;51.108;8.068;2023-02-19T17:15:19;8.10;99.90
45096;DHT22;30858;51.108;8.068;2023-02-19T17:17:45;8.10;99.90
45096;DHT22;30858;51.108;8.068;2023-02-19T17:22:43;8.00;99.90
45096;DHT22;30858;51.108;8.068;2023-02-19T17:25:09;8.00;99.90
45096;DHT22;30858;51.108;8.068;2023-02-19T17:27:35;8.10;99.90
45096;DHT22;30858;51.108;8.068;2023-02-19T17:30:00;8.00;99.90
45096;DHT22;30858;51.108;8.068;2023-02-19T17:32:26;8.10;99.90
45096;DHT22;30858;51.108;8.068;2023-02-19T17:34:52;8.00;99.90
45096;DHT22;30858;51.108;8.068;2023-02-19T17:37:17;8.00;99.90
45096;DHT22;30858;51.108;8.068;2023-02-19T17:39:43;8.00;99.90
45096;DHT22;30858;51.108;8.068;2023-02-19T17:42:08;7.90;99.90
45096;DHT22;30858;51.108;8.068;2023-02-19T17:44:34;7.90;99.90
45096;DHT22;30858;51.108;8.068;2023-02-19T17:47:00;7.80;99.90
45096;DHT22;30858;51.108;8.068;2023-02-19T17:49:26;7.80;99.90
45096;DHT22;30858;51.108;8.068;2023-02-19T17:51:52;7.80;99.90
45096;DHT22;30858;51.108;8.068;2023-02-19T17:54:17;7.70;99.90
45096;DHT22;30858;51.108;8.068;2023-02-19T17:56:43;7.80;99.90
45096;DHT22;30858;51.108;8.068;2023-02-19T17:59:10;7.80;99.90
45096;DHT22;30858;51.108;8.068;2023-02-19T18:01:36;7.70;99.90
45096;DHT22;30858;51.108;8.068;2023-02-19T18:04:02;7.80;99.90
45096;DHT22;30858;51.108;8.068;2023-02-19T18:06:28;7.80;99.90
45096;DHT22;30858;51.108;8.068;2023-02-19T18:08:53;7.70;99.90
45096;DHT22;30858;51.108;8.068;2023-02-19T18:11:20;7.70;99.90